• Join FlightAware (Why Join?)
  • Login
  • US Flag 
07:53AM EDT


 

Airport Tracker/Info


-or-


 

Live Flight TrackerFlight Track Log ✈ ASH3751 ✈ 25-Jun-2013 ✈ KORD - KALB

Flight Track Log - Related Links

Times and Time Zones

All times are in EDT time to prevent confusion due to time zone crossing. See the ASH3751 flight status page for this flight to view local times or setup timezone preferences in your user account.

Time Position Orientation Groundspeed Altitude Reporting Facility
EDT Latitude Longitude Course Direction KTS MPH feet Rate Location/Type
02:11AM 42.0333 -87.9833 81° East 200 230 3,600  Level Chicago TRACON
02:13AM 42.1267 -88.0392 336° Northwest 274 315 7,000 2,340 Climbing Chicago Center
02:14AM 42.2031 -88.0381 North 277 319 9,700 2,460 Climbing Chicago Center
02:15AM 42.2806 -88.0411 358° North 280 322 12,000 2,280 Climbing Chicago Center
02:16AM 42.3631 -88.0136 14° North 309 356 14,300 2,220 Climbing Chicago Center
02:17AM 42.0885 -86.9597 81° East  Level Estimated
02:17AM 42.4383 -87.9531 31° Northeast 315 362 16,500  Level Chicago Center
02:18AM 42.5158 -87.8894 31° Northeast 324 373 18,500 1,920 Climbing Chicago Center
02:19AM 42.5942 -87.8261 31° Northeast 327 376 20,400 1,560 Climbing Chicago Center
02:20AM 42.6769 -87.7567 32° Northeast 345 397 21,700 1,380 Climbing Chicago Center
02:21AM 42.7611 -87.6811 33° Northeast 361 415 23,200 1,320 Climbing Chicago Center
02:22AM 42.8283 -87.5689 51° Northeast 382 440 24,400 1,260 Climbing Chicago Center
02:23AM 42.8969 -87.4511 51° Northeast 395 455 25,800 1,260 Climbing Chicago Center
02:24AM 42.9675 -87.3314 51° Northeast 404 465 27,000 1,200 Climbing Chicago Center
02:25AM 43.0392 -87.2103 51° Northeast 408 470 28,300 1,200 Climbing Chicago Center
02:26AM 43.1056 -87.0797 55° Northeast 416 479 29,400 960 Climbing Chicago Center
02:27AM 43.1603 -86.9356 62° Northeast 431 496 30,300 900 Climbing Chicago Center
02:28AM 43.1783 -86.7703 81° East 440 506 31,300 660 Climbing Chicago Center
02:29AM 43.1853 -86.5994 87° East 450 518 31,700 420 Climbing Chicago Center
02:30AM 43.1906 -86.4200 88° East 467 537 32,200 480 Climbing Chicago Center
02:31AM 43.1983 -86.2364 87° East 478 550 32,700 480 Climbing Chicago Center
02:32AM 43.2044 -86.0442 87° East 491 565 33,200 480 Climbing Chicago Center
02:33AM 43.2111 -85.8481 87° East 501 577 33,700 420 Climbing Chicago Center
02:34AM 43.2139 -85.6931 89° East 502 578 34,100 480 Climbing Chicago Center
02:35AM 43.2189 -85.5006 88° East 504 580 34,700 540 Climbing Chicago Center
02:36AM 43.2239 -85.3086 88° East 503 579 35,200 540 Climbing Chicago Center
02:37AM 43.2283 -85.1144 88° East 508 585 35,800 600 Climbing Chicago Center
02:38AM 43.2325 -84.9239 88° East 503 579 36,500 600 Climbing Chicago Center
02:39AM 43.2358 -84.7378 89° East 491 565 37,000 240 Climbing Chicago Center
02:40AM 43.2408 -84.5089 88° East 500 575 37,000  Level Chicago Center
02:41AM 43.2442 -84.3217 89° East 495 570 37,000  Level Chicago Center
02:42AM 43.2461 -84.1175 89° East 494 568 37,000  Level Cleveland Center
02:43AM 43.2458 -83.9094 90° East 494 568 37,000  Level Cleveland Center
02:44AM 43.2492 -83.7158 89° East 499 574 37,000  Level Cleveland Center
02:45AM 43.2503 -83.5219 89° East 499 574 37,000  Level Cleveland Center
02:46AM 43.2531 -83.3225 89° East 504 580 37,000  Level Cleveland Center
02:47AM 43.2553 -83.1286 89° East 509 586 37,000  Level Cleveland Center
02:48AM 43.2572 -82.9378 89° East 509 586 37,000  Level Cleveland Center
02:49AM 43.2547 -82.7467 91° East 504 580 37,000  Level Cleveland Center
02:50AM 43.2478 -82.5583 93° East 499 574 37,000  Level Cleveland Center
02:51AM 43.2425 -82.3700 92° East 499 574 37,000  Level Cleveland Center
02:52AM 43.2411 -82.1792 91° East 499 574 37,000  Level Cleveland Center
02:54AM 43.2039 -81.9879 105° East  Level FlightAware Approximate
03:00AM 43.1978 -80.7114 93° East 493 567 37,000  Level Cleveland Center
03:01AM 43.0267 -80.8802 92° East  Level FlightAware Approximate
03:01AM 43.1917 -80.5233 92° East 498 573 37,000  Level Cleveland Center
03:02AM 43.0221 -80.7181 92° East  Level FlightAware Approximate
03:02AM 43.1831 -80.3128 93° East 498 573 37,000  Level Cleveland Center
03:03AM 43.0174 -80.5561 92° East  Level FlightAware Approximate
03:03AM 43.1783 -80.1250 92° East 497 572 37,000  Level Cleveland Center
03:04AM 43.0112 -80.3942 93° East  Level FlightAware Approximate
03:04AM 43.1689 -79.9286 94° East 496 571 37,000  Level Cleveland Center
03:05AM 43.1636 -79.7350 92° East 503 579 37,100  Climbing Cleveland Center
03:06AM 43.1536 -79.5475 94° East 503 579 37,000 -60 Descending Cleveland Center
03:07AM 43.1456 -79.3625 93° East 497 572 37,000  Level Cleveland Center
03:08AM 43.1331 -79.1750 95° East 497 572 37,000  Level Cleveland Center
03:09AM 43.1286 -78.9844 92° East 497 572 37,000  Level Cleveland Center
03:10AM 43.1175 -78.7972 95° East 497 572 37,000  Level Cleveland Center
03:11AM 43.1061 -78.6125 95° East 497 572 37,000  Level Cleveland Center
03:13AM 43.0867 -78.2322 94° East 497 572 37,000  Level Cleveland Center
03:14AM 43.0764 -78.0450 94° East 497 572 37,000  Level Cleveland Center
03:15AM 43.0636 -77.8522 95° East 497 572 37,000  Level Cleveland Center
03:16AM 43.0506 -77.6567 95° East 502 578 37,000  Level Cleveland Center
03:17AM 43.0392 -77.4614 94° East 502 578 37,000 -600 Level Cleveland Center
03:19AM 43.0206 -77.1894 95° East 519 597 35,500 -1,200 Descending Boston Center
03:20AM 43.0094 -76.9981 94° East 519 597 34,000 -1,500 Descending Boston Center
03:21AM 42.9964 -76.8011 95° East 519 597 32,500 -1,620 Descending Boston Center
03:22AM 42.9794 -76.5869 96° East 519 597 30,800 -1,620 Descending Boston Center
03:23AM 42.9672 -76.4017 95° East 513 590 29,300 -900 Descending Boston Center
03:24AM 42.9525 -76.2161 96° East 500 575 29,000 -180 Descending Boston Center
03:25AM 42.9400 -76.0253 95° East 500 575 29,000  Level Boston Center
03:26AM 42.9231 -75.8344 97° East 506 582 29,000 -120 Level Boston Center
03:27AM 42.9097 -75.6408 95° East 506 582 28,800 -1,200 Descending Boston Center
03:28AM 42.8919 -75.4500 97° East 506 582 26,600 -2,520 Descending Boston Center
03:29AM 42.8797 -75.2850 96° East 500 575 23,800 -2,940 Descending Boston Center
03:30AM 42.8672 -75.1144 96° East 475 547 20,800 -2,940 Descending Boston Center
03:31AM 42.8522 -74.9494 97° East 452 520 18,000 -2,700 Descending Boston Center
03:32AM 42.8369 -74.7789 97° East 423 487 15,500 -2,220 Descending Boston Center
03:33AM 42.8253 -74.6397 96° East 390 449 13,700 -1,980 Descending Boston Center
03:34AM 42.7942 -74.5142 109° East 347 399 11,700 -1,800 Descending Boston Center
03:35AM 42.7547 -74.3911 114° Southeast 315 362 10,100 -1,740 Descending Boston Center
03:36AM 42.7189 -74.2883 115° Southeast 306 352 8,200 -1,800 Descending Boston Center
03:37AM 42.6869 -74.1914 114° Southeast 301 346 6,500 -2,040 Descending Boston Center
03:38AM 42.6492 -74.0772 114° Southeast 300 345 4,200 -1,260 Descending Boston Center
03:39AM 42.6211 -73.9892 113° Southeast 286 329 4,000 -600 Descending Boston Center
03:40AM 42.6036 -73.8983 105° East 263 303 3,000 -960 Descending Boston Center
03:41AM 42.6108 -73.8197 83° East 225 259 2,100 -540 Descending Boston Center
03:42AM 42.6464 -73.8006 22° Northeast 165 190 2,000 -480 Descending Boston Center
03:43AM 42.6944 -73.8044 357° North 135 155 1,200 -780 Descending Boston Center